sensor_id;sensor_type;location;lat;lon;timestamp;P1;durP1;ratioP1;P2;durP2;ratioP2
18378;SDS011;27025;51.986;5.984;2023-08-20T00:01:43;9.70;;;5.50;;
18378;SDS011;27025;51.986;5.984;2023-08-20T00:04:09;10.93;;;6.07;;
18378;SDS011;27025;51.986;5.984;2023-08-20T00:06:36;10.13;;;5.60;;
18378;SDS011;27025;51.986;5.984;2023-08-20T00:09:02;10.50;;;6.10;;
18378;SDS011;27025;51.986;5.984;2023-08-20T00:11:29;9.97;;;5.37;;
18378;SDS011;27025;51.986;5.984;2023-08-20T00:13:56;10.20;;;5.53;;
18378;SDS011;27025;51.986;5.984;2023-08-20T00:16:22;10.80;;;5.13;;
18378;SDS011;27025;51.986;5.984;2023-08-20T00:18:48;13.33;;;5.60;;
18378;SDS011;27025;51.986;5.984;2023-08-20T00:21:14;9.03;;;5.40;;
18378;SDS011;27025;51.986;5.984;2023-08-20T00:23:40;11.50;;;5.63;;
18378;SDS011;27025;51.986;5.984;2023-08-20T00:26:06;10.90;;;5.37;;
18378;SDS011;27025;51.986;5.984;2023-08-20T00:28:32;12.23;;;5.53;;
18378;SDS011;27025;51.986;5.984;2023-08-20T00:30:59;9.03;;;5.70;;
18378;SDS011;27025;51.986;5.984;2023-08-20T00:33:26;10.13;;;5.57;;
18378;SDS011;27025;51.986;5.984;2023-08-20T00:35:52;12.43;;;5.80;;
18378;SDS011;27025;51.986;5.984;2023-08-20T00:38:18;8.77;;;5.30;;
18378;SDS011;27025;51.986;5.984;2023-08-20T00:40:44;13.30;;;5.60;;
18378;SDS011;27025;51.986;5.984;2023-08-20T00:43:10;8.63;;;5.87;;
18378;SDS011;27025;51.986;5.984;2023-08-20T00:45:36;12.30;;;6.00;;
18378;SDS011;27025;51.986;5.984;2023-08-20T00:48:03;13.13;;;6.17;;
18378;SDS011;27025;51.986;5.984;2023-08-20T00:50:30;12.03;;;6.00;;
18378;SDS011;27025;51.986;5.984;2023-08-20T00:52:56;11.83;;;6.20;;
18378;SDS011;27025;51.986;5.984;2023-08-20T00:55:22;10.63;;;6.30;;
18378;SDS011;27025;51.986;5.984;2023-08-20T00:57:48;13.33;;;6.20;;
18378;SDS011;27025;51.986;5.984;2023-08-20T01:00:14;12.77;;;6.70;;
18378;SDS011;27025;51.986;5.984;2023-08-20T01:02:41;10.63;;;6.63;;
18378;SDS011;27025;51.986;5.984;2023-08-20T01:05:08;11.00;;;6.10;;
18378;SDS011;27025;51.986;5.984;2023-08-20T01:10:06;11.27;;;6.53;;
18378;SDS011;27025;51.986;5.984;2023-08-20T01:12:34;11.23;;;6.53;;
18378;SDS011;27025;51.986;5.984;2023-08-20T01:15:00;13.83;;;6.20;;
18378;SDS011;27025;51.986;5.984;2023-08-20T01:17:26;13.93;;;6.73;;
18378;SDS011;27025;51.986;5.984;2023-08-20T01:19:52;12.83;;;6.23;;
18378;SDS011;27025;51.986;5.984;2023-08-20T01:29:51;9.70;;;6.47;;
18378;SDS011;27025;51.986;5.984;2023-08-20T01:32:18;17.27;;;6.60;;
18378;SDS011;27025;51.986;5.984;2023-08-20T01:34:45;11.73;;;6.20;;
18378;SDS011;27025;51.986;5.984;2023-08-20T01:37:13;12.77;;;6.80;;
18378;SDS011;27025;51.986;5.984;2023-08-20T01:39:39;13.27;;;6.40;;
18378;SDS011;27025;51.986;5.984;2023-08-20T01:42:05;10.47;;;6.37;;
18378;SDS011;27025;51.986;5.984;2023-08-20T01:44:31;11.40;;;6.40;;
18378;SDS011;27025;51.986;5.984;2023-08-20T01:46:57;14.50;;;6.47;;
18378;SDS011;27025;51.986;5.984;2023-08-20T01:49:23;9.70;;;6.03;;
18378;SDS011;27025;51.986;5.984;2023-08-20T01:51:49;14.10;;;6.23;;
18378;SDS011;27025;51.986;5.984;2023-08-20T01:54:15;13.17;;;6.33;;
18378;SDS011;27025;51.986;5.984;2023-08-20T01:56:42;11.70;;;6.63;;
18378;SDS011;27025;51.986;5.984;2023-08-20T01:59:08;12.40;;;6.60;;
18378;SDS011;27025;51.986;5.984;2023-08-20T02:01:34;10.20;;;5.97;;
18378;SDS011;27025;51.986;5.984;2023-08-20T02:04:00;10.67;;;6.33;;
18378;SDS011;27025;51.986;5.984;2023-08-20T02:06:26;9.87;;;6.10;;
18378;SDS011;27025;51.986;5.984;2023-08-20T02:08:52;12.33;;;6.10;;
18378;SDS011;27025;51.986;5.984;2023-08-20T02:11:18;10.27;;;5.57;;
18378;SDS011;27025;51.986;5.984;2023-08-20T02:13:44;11.67;;;5.67;;
18378;SDS011;27025;51.986;5.984;2023-08-20T02:16:10;9.70;;;5.50;;
18378;SDS011;27025;51.986;5.984;2023-08-20T02:18:36;7.93;;;5.40;;
18378;SDS011;27025;51.986;5.984;2023-08-20T02:21:02;9.47;;;4.93;;
18378;SDS011;27025;51.986;5.984;2023-08-20T02:23:28;8.93;;;5.60;;
18378;SDS011;27025;51.986;5.984;2023-08-20T02:25:54;10.13;;;5.60;;
18378;SDS011;27025;51.986;5.984;2023-08-20T02:28:20;10.67;;;5.33;;
18378;SDS011;27025;51.986;5.984;2023-08-20T02:30:47;11.57;;;5.40;;
18378;SDS011;27025;51.986;5.984;2023-08-20T02:33:13;8.03;;;5.47;;
18378;SDS011;27025;51.986;5.984;2023-08-20T02:35:39;8.10;;;5.30;;
18378;SDS011;27025;51.986;5.984;2023-08-20T02:38:05;8.20;;;5.23;;
18378;SDS011;27025;51.986;5.984;2023-08-20T02:40:31;12.03;;;5.43;;
18378;SDS011;27025;51.986;5.984;2023-08-20T02:42:57;6.73;;;4.70;;
18378;SDS011;27025;51.986;5.984;2023-08-20T02:45:23;9.70;;;5.00;;
18378;SDS011;27025;51.986;5.984;2023-08-20T02:47:50;9.43;;;5.00;;
18378;SDS011;27025;51.986;5.984;2023-08-20T02:50:16;6.70;;;5.10;;
18378;SDS011;27025;51.986;5.984;2023-08-20T02:52:42;10.73;;;5.13;;
18378;SDS011;27025;51.986;5.984;2023-08-20T02:55:08;8.07;;;4.93;;
18378;SDS011;27025;51.986;5.984;2023-08-20T02:57:34;8.77;;;4.97;;
18378;SDS011;27025;51.986;5.984;2023-08-20T03:00:00;11.17;;;5.30;;
18378;SDS011;27025;51.986;5.984;2023-08-20T03:02:26;7.43;;;5.17;;
18378;SDS011;27025;51.986;5.984;2023-08-20T03:04:52;12.40;;;5.60;;
18378;SDS011;27025;51.986;5.984;2023-08-20T03:07:20;12.50;;;5.50;;
18378;SDS011;27025;51.986;5.984;2023-08-20T03:09:47;9.80;;;5.60;;
18378;SDS011;27025;51.986;5.984;2023-08-20T03:12:13;8.33;;;5.63;;
18378;SDS011;27025;51.986;5.984;2023-08-20T03:14:39;11.70;;;5.53;;
18378;SDS011;27025;51.986;5.984;2023-08-20T03:17:05;13.00;;;5.37;;
18378;SDS011;27025;51.986;5.984;2023-08-20T03:19:32;7.53;;;5.10;;
18378;SDS011;27025;51.986;5.984;2023-08-20T03:21:58;8.80;;;5.40;;
18378;SDS011;27025;51.986;5.984;2023-08-20T03:24:24;12.13;;;5.77;;
18378;SDS011;27025;51.986;5.984;2023-08-20T03:26:50;10.73;;;6.13;;
18378;SDS011;27025;51.986;5.984;2023-08-20T03:29:16;13.60;;;5.67;;
18378;SDS011;27025;51.986;5.984;2023-08-20T03:31:42;11.53;;;5.50;;
18378;SDS011;27025;51.986;5.984;2023-08-20T03:34:08;12.63;;;5.90;;
18378;SDS011;27025;51.986;5.984;2023-08-20T03:36:35;8.90;;;5.73;;
18378;SDS011;27025;51.986;5.984;2023-08-20T03:39:01;11.83;;;6.30;;
18378;SDS011;27025;51.986;5.984;2023-08-20T03:41:28;8.67;;;6.27;;
18378;SDS011;27025;51.986;5.984;2023-08-20T03:43:54;10.67;;;6.57;;
18378;SDS011;27025;51.986;5.984;2023-08-20T03:46:20;11.73;;;6.30;;
18378;SDS011;27025;51.986;5.984;2023-08-20T03:48:46;9.07;;;5.90;;
18378;SDS011;27025;51.986;5.984;2023-08-20T03:51:12;9.33;;;5.93;;
18378;SDS011;27025;51.986;5.984;2023-08-20T03:53:38;9.30;;;6.17;;
18378;SDS011;27025;51.986;5.984;2023-08-20T03:56:04;10.07;;;6.50;;
18378;SDS011;27025;51.986;5.984;2023-08-20T03:58:30;8.40;;;6.97;;
18378;SDS011;27025;51.986;5.984;2023-08-20T04:00:56;9.47;;;6.57;;
18378;SDS011;27025;51.986;5.984;2023-08-20T04:03:22;12.23;;;7.10;;
18378;SDS011;27025;51.986;5.984;2023-08-20T04:05:49;10.07;;;7.00;;
18378;SDS011;27025;51.986;5.984;2023-08-20T04:08:15;11.43;;;6.93;;
18378;SDS011;27025;51.986;5.984;2023-08-20T04:10:44;11.53;;;6.87;;
18378;SDS011;27025;51.986;5.984;2023-08-20T04:13:10;11.93;;;7.00;;
18378;SDS011;27025;51.986;5.984;2023-08-20T04:15:38;10.50;;;7.30;;
18378;SDS011;27025;51.986;5.984;2023-08-20T04:18:05;10.77;;;7.10;;
18378;SDS011;27025;51.986;5.984;2023-08-20T04:20:31;11.43;;;7.70;;
18378;SDS011;27025;51.986;5.984;2023-08-20T04:22:57;11.63;;;7.73;;
18378;SDS011;27025;51.986;5.984;2023-08-20T04:25:23;11.83;;;7.70;;
18378;SDS011;27025;51.986;5.984;2023-08-20T04:27:49;13.77;;;7.63;;
18378;SDS011;27025;51.986;5.984;2023-08-20T04:30:15;12.60;;;7.37;;
18378;SDS011;27025;51.986;5.984;2023-08-20T04:32:41;15.53;;;7.53;;
18378;SDS011;27025;51.986;5.984;2023-08-20T04:35:07;10.63;;;8.30;;
18378;SDS011;27025;51.986;5.984;2023-08-20T04:37:33;11.87;;;8.07;;
18378;SDS011;27025;51.986;5.984;2023-08-20T04:39:59;11.33;;;8.17;;
18378;SDS011;27025;51.986;5.984;2023-08-20T04:42:25;11.77;;;7.93;;
18378;SDS011;27025;51.986;5.984;2023-08-20T04:44:51;14.53;;;9.17;;
18378;SDS011;27025;51.986;5.984;2023-08-20T04:47:17;10.87;;;9.17;;
18378;SDS011;27025;51.986;5.984;2023-08-20T04:49:43;14.40;;;9.03;;
18378;SDS011;27025;51.986;5.984;2023-08-20T04:52:09;12.10;;;9.17;;
18378;SDS011;27025;51.986;5.984;2023-08-20T04:54:35;14.93;;;8.90;;
18378;SDS011;27025;51.986;5.984;2023-08-20T04:57:01;10.70;;;9.33;;
18378;SDS011;27025;51.986;5.984;2023-08-20T04:59:27;12.77;;;9.60;;
18378;SDS011;27025;51.986;5.984;2023-08-20T05:01:53;11.83;;;9.90;;
18378;SDS011;27025;51.986;5.984;2023-08-20T05:04:20;14.00;;;10.47;;
18378;SDS011;27025;51.986;5.984;2023-08-20T05:06:46;17.50;;;9.97;;
18378;SDS011;27025;51.986;5.984;2023-08-20T05:09:12;12.73;;;10.00;;
18378;SDS011;27025;51.986;5.984;2023-08-20T05:11:38;13.23;;;10.10;;
18378;SDS011;27025;51.986;5.984;2023-08-20T05:14:04;12.47;;;9.93;;
18378;SDS011;27025;51.986;5.984;2023-08-20T05:16:30;16.00;;;10.07;;
18378;SDS011;27025;51.986;5.984;2023-08-20T05:18:56;15.87;;;10.00;;
18378;SDS011;27025;51.986;5.984;2023-08-20T05:21:22;15.33;;;10.40;;
18378;SDS011;27025;51.986;5.984;2023-08-20T05:23:49;14.23;;;10.73;;
18378;SDS011;27025;51.986;5.984;2023-08-20T05:26:15;18.07;;;11.30;;
18378;SDS011;27025;51.986;5.984;2023-08-20T05:28:41;13.70;;;10.80;;
18378;SDS011;27025;51.986;5.984;2023-08-20T05:31:07;12.40;;;10.53;;
18378;SDS011;27025;51.986;5.984;2023-08-20T05:33:33;13.83;;;10.10;;
18378;SDS011;27025;51.986;5.984;2023-08-20T05:35:59;14.70;;;10.57;;
18378;SDS011;27025;51.986;5.984;2023-08-20T05:38:25;12.60;;;9.67;;
18378;SDS011;27025;51.986;5.984;2023-08-20T05:40:51;13.73;;;9.60;;
18378;SDS011;27025;51.986;5.984;2023-08-20T05:43:17;11.53;;;9.83;;
18378;SDS011;27025;51.986;5.984;2023-08-20T05:45:43;17.30;;;10.40;;
18378;SDS011;27025;51.986;5.984;2023-08-20T05:48:09;13.97;;;9.43;;
18378;SDS011;27025;51.986;5.984;2023-08-20T05:50:35;15.00;;;9.60;;
18378;SDS011;27025;51.986;5.984;2023-08-20T05:53:01;14.77;;;10.93;;
18378;SDS011;27025;51.986;5.984;2023-08-20T05:55:27;13.90;;;10.27;;
18378;SDS011;27025;51.986;5.984;2023-08-20T05:57:53;15.00;;;9.70;;
18378;SDS011;27025;51.986;5.984;2023-08-20T06:00:19;16.73;;;11.20;;
18378;SDS011;27025;51.986;5.984;2023-08-20T06:02:45;12.53;;;10.27;;
18378;SDS011;27025;51.986;5.984;2023-08-20T06:05:11;14.17;;;10.73;;
18378;SDS011;27025;51.986;5.984;2023-08-20T06:07:38;20.60;;;10.33;;
18378;SDS011;27025;51.986;5.984;2023-08-20T06:10:04;14.40;;;10.67;;
18378;SDS011;27025;51.986;5.984;2023-08-20T06:12:30;16.43;;;10.00;;
18378;SDS011;27025;51.986;5.984;2023-08-20T06:14:56;14.13;;;9.60;;
18378;SDS011;27025;51.986;5.984;2023-08-20T06:17:22;13.73;;;9.07;;
18378;SDS011;27025;51.986;5.984;2023-08-20T06:19:48;12.77;;;8.20;;
18378;SDS011;27025;51.986;5.984;2023-08-20T06:22:14;16.63;;;7.83;;
18378;SDS011;27025;51.986;5.984;2023-08-20T06:24:40;14.93;;;8.03;;
18378;SDS011;27025;51.986;5.984;2023-08-20T06:27:06;14.20;;;7.43;;
18378;SDS011;27025;51.986;5.984;2023-08-20T06:29:32;14.20;;;7.70;;
18378;SDS011;27025;51.986;5.984;2023-08-20T06:31:58;13.17;;;6.63;;
18378;SDS011;27025;51.986;5.984;2023-08-20T06:34:24;12.50;;;7.00;;
18378;SDS011;27025;51.986;5.984;2023-08-20T06:36:50;16.40;;;6.00;;
18378;SDS011;27025;51.986;5.984;2023-08-20T06:39:16;9.57;;;5.67;;
18378;SDS011;27025;51.986;5.984;2023-08-20T06:41:44;13.77;;;5.43;;
18378;SDS011;27025;51.986;5.984;2023-08-20T06:44:10;11.20;;;5.33;;
18378;SDS011;27025;51.986;5.984;2023-08-20T06:46:36;11.00;;;5.30;;
18378;SDS011;27025;51.986;5.984;2023-08-20T06:49:02;11.07;;;4.83;;
18378;SDS011;27025;51.986;5.984;2023-08-20T06:51:29;13.93;;;4.50;;
18378;SDS011;27025;51.986;5.984;2023-08-20T06:53:55;12.67;;;5.00;;
18378;SDS011;27025;51.986;5.984;2023-08-20T06:56:21;9.90;;;4.50;;
18378;SDS011;27025;51.986;5.984;2023-08-20T06:58:47;12.87;;;4.53;;
18378;SDS011;27025;51.986;5.984;2023-08-20T07:01:13;13.30;;;4.60;;
18378;SDS011;27025;51.986;5.984;2023-08-20T07:03:40;14.83;;;4.60;;
18378;SDS011;27025;51.986;5.984;2023-08-20T07:06:06;12.17;;;4.47;;
18378;SDS011;27025;51.986;5.984;2023-08-20T07:08:34;12.40;;;4.40;;
18378;SDS011;27025;51.986;5.984;2023-08-20T07:11:00;12.07;;;4.00;;
18378;SDS011;27025;51.986;5.984;2023-08-20T07:13:26;8.93;;;3.50;;
18378;SDS011;27025;51.986;5.984;2023-08-20T07:15:53;11.57;;;3.73;;
18378;SDS011;27025;51.986;5.984;2023-08-20T07:18:20;9.10;;;3.60;;
18378;SDS011;27025;51.986;5.984;2023-08-20T07:20:46;10.07;;;3.57;;
18378;SDS011;27025;51.986;5.984;2023-08-20T07:23:12;9.53;;;3.57;;
18378;SDS011;27025;51.986;5.984;2023-08-20T07:25:38;9.67;;;3.27;;
18378;SDS011;27025;51.986;5.984;2023-08-20T07:28:05;8.40;;;3.07;;
18378;SDS011;27025;51.986;5.984;2023-08-20T07:30:32;8.60;;;3.30;;
18378;SDS011;27025;51.986;5.984;2023-08-20T07:32:58;9.33;;;3.13;;
18378;SDS011;27025;51.986;5.984;2023-08-20T07:35:24;10.33;;;3.60;;
18378;SDS011;27025;51.986;5.984;2023-08-20T07:37:50;9.30;;;3.03;;
18378;SDS011;27025;51.986;5.984;2023-08-20T07:40:16;9.27;;;3.60;;
18378;SDS011;27025;51.986;5.984;2023-08-20T07:42:42;7.53;;;3.13;;
18378;SDS011;27025;51.986;5.984;2023-08-20T07:45:09;7.57;;;3.07;;
18378;SDS011;27025;51.986;5.984;2023-08-20T07:47:35;10.20;;;3.33;;
18378;SDS011;27025;51.986;5.984;2023-08-20T07:50:02;10.87;;;3.30;;
18378;SDS011;27025;51.986;5.984;2023-08-20T07:52:28;9.37;;;3.33;;
18378;SDS011;27025;51.986;5.984;2023-08-20T07:54:54;8.73;;;3.00;;
18378;SDS011;27025;51.986;5.984;2023-08-20T07:57:20;9.23;;;3.37;;
18378;SDS011;27025;51.986;5.984;2023-08-20T07:59:46;13.00;;;3.83;;
18378;SDS011;27025;51.986;5.984;2023-08-20T08:02:12;11.10;;;3.87;;
18378;SDS011;27025;51.986;5.984;2023-08-20T08:04:38;8.83;;;3.87;;
18378;SDS011;27025;51.986;5.984;2023-08-20T08:07:04;10.88;;;3.95;;
18378;SDS011;27025;51.986;5.984;2023-08-20T08:09:31;8.85;;;3.50;;
18378;SDS011;27025;51.986;5.984;2023-08-20T08:11:57;9.48;;;3.70;;
18378;SDS011;27025;51.986;5.984;2023-08-20T08:14:24;9.02;;;3.65;;
18378;SDS011;27025;51.986;5.984;2023-08-20T08:16:50;9.75;;;3.85;;
18378;SDS011;27025;51.986;5.984;2023-08-20T08:19:16;10.00;;;3.88;;
18378;SDS011;27025;51.986;5.984;2023-08-20T08:21:43;9.07;;;3.50;;
18378;SDS011;27025;51.986;5.984;2023-08-20T08:24:10;8.93;;;3.60;;
18378;SDS011;27025;51.986;5.984;2023-08-20T08:26:36;8.23;;;3.40;;
18378;SDS011;27025;51.986;5.984;2023-08-20T08:29:02;8.88;;;3.20;;
18378;SDS011;27025;51.986;5.984;2023-08-20T08:31:28;8.75;;;3.22;;
18378;SDS011;27025;51.986;5.984;2023-08-20T08:33:54;7.05;;;2.80;;
18378;SDS011;27025;51.986;5.984;2023-08-20T08:36:21;6.65;;;2.50;;
18378;SDS011;27025;51.986;5.984;2023-08-20T08:38:47;8.48;;;2.88;;
18378;SDS011;27025;51.986;5.984;2023-08-20T08:41:13;7.45;;;2.90;;
18378;SDS011;27025;51.986;5.984;2023-08-20T08:43:39;6.70;;;2.07;;
18378;SDS011;27025;51.986;5.984;2023-08-20T08:46:06;5.10;;;2.20;;
18378;SDS011;27025;51.986;5.984;2023-08-20T08:48:33;5.38;;;2.17;;
18378;SDS011;27025;51.986;5.984;2023-08-20T08:51:02;4.63;;;1.80;;
18378;SDS011;27025;51.986;5.984;2023-08-20T08:53:29;4.60;;;2.20;;
18378;SDS011;27025;51.986;5.984;2023-08-20T08:55:56;6.38;;;1.98;;
18378;SDS011;27025;51.986;5.984;2023-08-20T08:58:22;7.03;;;2.10;;
18378;SDS011;27025;51.986;5.984;2023-08-20T09:00:48;5.80;;;2.00;;
18378;SDS011;27025;51.986;5.984;2023-08-20T09:03:14;4.88;;;1.73;;
18378;SDS011;27025;51.986;5.984;2023-08-20T09:05:57;5.22;;;1.90;;
18378;SDS011;27025;51.986;5.984;2023-08-20T09:08:31;4.72;;;1.80;;
18378;SDS011;27025;51.986;5.984;2023-08-20T09:10:58;4.53;;;1.83;;
18378;SDS011;27025;51.986;5.984;2023-08-20T09:13:25;3.53;;;1.75;;
18378;SDS011;27025;51.986;5.984;2023-08-20T09:15:52;4.20;;;1.70;;
18378;SDS011;27025;51.986;5.984;2023-08-20T09:18:18;5.43;;;2.00;;
18378;SDS011;27025;51.986;5.984;2023-08-20T09:20:44;5.32;;;1.65;;
18378;SDS011;27025;51.986;5.984;2023-08-20T09:23:11;4.18;;;1.55;;
18378;SDS011;27025;51.986;5.984;2023-08-20T09:25:40;4.37;;;1.67;;
18378;SDS011;27025;51.986;5.984;2023-08-20T09:28:06;3.47;;;1.50;;
18378;SDS011;27025;51.986;5.984;2023-08-20T09:30:32;3.83;;;1.58;;
18378;SDS011;27025;51.986;5.984;2023-08-20T09:33:11;3.55;;;1.50;;
18378;SDS011;27025;51.986;5.984;2023-08-20T09:35:48;5.28;;;1.73;;
18378;SDS011;27025;51.986;5.984;2023-08-20T09:38:14;4.55;;;1.40;;
18378;SDS011;27025;51.986;5.984;2023-08-20T09:40:40;4.22;;;1.40;;
18378;SDS011;27025;51.986;5.984;2023-08-20T09:43:06;4.13;;;1.50;;
18378;SDS011;27025;51.986;5.984;2023-08-20T09:45:33;4.68;;;1.60;;
18378;SDS011;27025;51.986;5.984;2023-08-20T09:48:00;3.10;;;1.40;;
18378;SDS011;27025;51.986;5.984;2023-08-20T09:50:29;3.03;;;1.30;;
18378;SDS011;27025;51.986;5.984;2023-08-20T09:53:03;3.25;;;1.38;;
18378;SDS011;27025;51.986;5.984;2023-08-20T09:55:35;3.85;;;1.50;;
18378;SDS011;27025;51.986;5.984;2023-08-20T09:58:02;4.70;;;1.63;;
18378;SDS011;27025;51.986;5.984;2023-08-20T10:00:28;3.85;;;1.38;;
18378;SDS011;27025;51.986;5.984;2023-08-20T10:02:54;2.33;;;1.10;;
18378;SDS011;27025;51.986;5.984;2023-08-20T10:05:21;3.50;;;1.48;;
18378;SDS011;27025;51.986;5.984;2023-08-20T10:07:49;3.85;;;1.50;;
18378;SDS011;27025;51.986;5.984;2023-08-20T10:10:15;3.17;;;1.27;;
18378;SDS011;27025;51.986;5.984;2023-08-20T10:12:42;3.40;;;1.50;;
18378;SDS011;27025;51.986;5.984;2023-08-20T10:15:10;2.30;;;1.10;;
18378;SDS011;27025;51.986;5.984;2023-08-20T10:17:37;2.10;;;1.10;;
18378;SDS011;27025;51.986;5.984;2023-08-20T10:20:03;2.22;;;1.15;;
18378;SDS011;27025;51.986;5.984;2023-08-20T10:22:39;2.20;;;1.02;;
18378;SDS011;27025;51.986;5.984;2023-08-20T10:25:06;2.65;;;1.33;;
18378;SDS011;27025;51.986;5.984;2023-08-20T10:27:34;2.03;;;1.20;;
18378;SDS011;27025;51.986;5.984;2023-08-20T10:30:00;2.13;;;1.50;;
18378;SDS011;27025;51.986;5.984;2023-08-20T10:32:43;3.55;;;1.48;;
18378;SDS011;27025;51.986;5.984;2023-08-20T10:35:10;3.88;;;1.52;;
18378;SDS011;27025;51.986;5.984;2023-08-20T10:37:37;4.05;;;1.60;;
18378;SDS011;27025;51.986;5.984;2023-08-20T10:40:05;3.05;;;1.40;;
18378;SDS011;27025;51.986;5.984;2023-08-20T10:42:32;2.30;;;1.10;;
18378;SDS011;27025;51.986;5.984;2023-08-20T10:45:04;3.80;;;1.42;;
18378;SDS011;27025;51.986;5.984;2023-08-20T10:50:02;4.53;;;1.20;;
18378;SDS011;27025;51.986;5.984;2023-08-20T10:52:28;3.35;;;1.20;;
18378;SDS011;27025;51.986;5.984;2023-08-20T10:54:56;4.30;;;1.52;;
18378;SDS011;27025;51.986;5.984;2023-08-20T10:57:22;4.13;;;1.50;;
18378;SDS011;27025;51.986;5.984;2023-08-20T10:59:56;2.55;;;1.35;;
18378;SDS011;27025;51.986;5.984;2023-08-20T11:02:26;2.72;;;1.50;;
18378;SDS011;27025;51.986;5.984;2023-08-20T11:04:53;2.47;;;1.13;;
18378;SDS011;27025;51.986;5.984;2023-08-20T11:07:20;3.88;;;1.27;;
18378;SDS011;27025;51.986;5.984;2023-08-20T11:09:46;3.17;;;1.25;;
18378;SDS011;27025;51.986;5.984;2023-08-20T11:12:16;3.53;;;1.40;;
18378;SDS011;27025;51.986;5.984;2023-08-20T11:14:43;2.65;;;1.30;;
18378;SDS011;27025;51.986;5.984;2023-08-20T11:17:09;4.70;;;1.48;;
18378;SDS011;27025;51.986;5.984;2023-08-20T11:19:35;3.00;;;1.30;;
18378;SDS011;27025;51.986;5.984;2023-08-20T11:22:01;2.65;;;1.05;;
18378;SDS011;27025;51.986;5.984;2023-08-20T11:24:28;3.50;;;1.50;;
18378;SDS011;27025;51.986;5.984;2023-08-20T11:26:54;3.92;;;1.50;;
18378;SDS011;27025;51.986;5.984;2023-08-20T11:29:20;4.47;;;1.65;;
18378;SDS011;27025;51.986;5.984;2023-08-20T11:31:47;2.90;;;1.38;;
18378;SDS011;27025;51.986;5.984;2023-08-20T11:34:13;3.45;;;1.50;;
18378;SDS011;27025;51.986;5.984;2023-08-20T11:36:39;3.95;;;1.50;;
18378;SDS011;27025;51.986;5.984;2023-08-20T11:39:06;4.00;;;1.50;;
18378;SDS011;27025;51.986;5.984;2023-08-20T11:41:35;3.42;;;1.50;;
18378;SDS011;27025;51.986;5.984;2023-08-20T11:44:01;4.05;;;1.33;;
18378;SDS011;27025;51.986;5.984;2023-08-20T11:46:28;3.03;;;1.50;;
18378;SDS011;27025;51.986;5.984;2023-08-20T11:51:30;4.10;;;1.60;;
18378;SDS011;27025;51.986;5.984;2023-08-20T11:53:57;4.35;;;1.60;;
18378;SDS011;27025;51.986;5.984;2023-08-20T11:56:23;4.40;;;1.70;;
18378;SDS011;27025;51.986;5.984;2023-08-20T11:58:52;3.33;;;1.30;;
18378;SDS011;27025;51.986;5.984;2023-08-20T12:01:18;3.42;;;1.48;;
18378;SDS011;27025;51.986;5.984;2023-08-20T12:03:44;3.33;;;1.45;;
18378;SDS011;27025;51.986;5.984;2023-08-20T12:06:20;4.30;;;1.40;;
18378;SDS011;27025;51.986;5.984;2023-08-20T12:08:48;4.05;;;1.58;;
18378;SDS011;27025;51.986;5.984;2023-08-20T12:11:14;2.80;;;1.30;;
18378;SDS011;27025;51.986;5.984;2023-08-20T12:13:40;4.30;;;1.40;;
18378;SDS011;27025;51.986;5.984;2023-08-20T12:16:06;2.78;;;1.38;;
18378;SDS011;27025;51.986;5.984;2023-08-20T12:18:32;4.03;;;1.80;;
18378;SDS011;27025;51.986;5.984;2023-08-20T12:20:59;3.65;;;1.52;;
18378;SDS011;27025;51.986;5.984;2023-08-20T12:23:25;3.45;;;1.45;;
18378;SDS011;27025;51.986;5.984;2023-08-20T12:25:52;3.58;;;1.40;;
18378;SDS011;27025;51.986;5.984;2023-08-20T12:28:18;3.95;;;1.73;;
18378;SDS011;27025;51.986;5.984;2023-08-20T12:30:44;3.30;;;1.50;;
18378;SDS011;27025;51.986;5.984;2023-08-20T12:33:11;3.65;;;1.60;;
18378;SDS011;27025;51.986;5.984;2023-08-20T12:35:37;4.00;;;1.50;;
18378;SDS011;27025;51.986;5.984;2023-08-20T12:38:03;3.72;;;1.52;;
18378;SDS011;27025;51.986;5.984;2023-08-20T12:40:30;4.43;;;1.70;;
18378;SDS011;27025;51.986;5.984;2023-08-20T12:42:56;3.40;;;1.60;;
18378;SDS011;27025;51.986;5.984;2023-08-20T12:45:22;3.10;;;1.60;;
18378;SDS011;27025;51.986;5.984;2023-08-20T12:47:48;3.65;;;1.50;;
18378;SDS011;27025;51.986;5.984;2023-08-20T12:50:14;3.70;;;1.50;;
18378;SDS011;27025;51.986;5.984;2023-08-20T12:52:40;3.93;;;1.70;;
18378;SDS011;27025;51.986;5.984;2023-08-20T12:55:08;5.30;;;1.77;;
18378;SDS011;27025;51.986;5.984;2023-08-20T12:57:34;4.75;;;1.60;;
18378;SDS011;27025;51.986;5.984;2023-08-20T13:00:03;4.35;;;1.60;;
18378;SDS011;27025;51.986;5.984;2023-08-20T13:02:36;3.40;;;1.60;;
18378;SDS011;27025;51.986;5.984;2023-08-20T13:05:02;4.07;;;1.80;;
18378;SDS011;27025;51.986;5.984;2023-08-20T13:07:29;3.10;;;1.60;;
18378;SDS011;27025;51.986;5.984;2023-08-20T13:09:55;4.83;;;1.70;;
18378;SDS011;27025;51.986;5.984;2023-08-20T13:12:21;4.28;;;1.50;;
18378;SDS011;27025;51.986;5.984;2023-08-20T13:14:49;3.88;;;1.80;;
18378;SDS011;27025;51.986;5.984;2023-08-20T13:17:15;5.15;;;1.83;;
18378;SDS011;27025;51.986;5.984;2023-08-20T13:19:41;4.70;;;1.93;;
18378;SDS011;27025;51.986;5.984;2023-08-20T13:22:07;5.25;;;1.90;;
18378;SDS011;27025;51.986;5.984;2023-08-20T13:24:33;3.42;;;1.63;;
18378;SDS011;27025;51.986;5.984;2023-08-20T13:26:59;3.70;;;1.63;;
18378;SDS011;27025;51.986;5.984;2023-08-20T13:29:25;4.20;;;1.70;;
18378;SDS011;27025;51.986;5.984;2023-08-20T13:31:52;4.20;;;1.55;;
18378;SDS011;27025;51.986;5.984;2023-08-20T13:34:18;3.30;;;1.50;;
18378;SDS011;27025;51.986;5.984;2023-08-20T13:36:44;3.92;;;1.70;;
18378;SDS011;27025;51.986;5.984;2023-08-20T13:39:11;3.33;;;1.50;;
18378;SDS011;27025;51.986;5.984;2023-08-20T13:41:39;4.22;;;1.60;;
18378;SDS011;27025;51.986;5.984;2023-08-20T13:44:05;4.40;;;1.70;;
18378;SDS011;27025;51.986;5.984;2023-08-20T13:46:31;5.10;;;1.63;;
18378;SDS011;27025;51.986;5.984;2023-08-20T13:48:57;3.13;;;1.40;;
18378;SDS011;27025;51.986;5.984;2023-08-20T13:51:23;4.40;;;1.50;;
18378;SDS011;27025;51.986;5.984;2023-08-20T13:53:50;5.05;;;1.65;;
18378;SDS011;27025;51.986;5.984;2023-08-20T13:56:16;4.25;;;1.77;;
18378;SDS011;27025;51.986;5.984;2023-08-20T13:58:42;4.83;;;1.70;;
18378;SDS011;27025;51.986;5.984;2023-08-20T14:01:08;3.72;;;1.63;;
18378;SDS011;27025;51.986;5.984;2023-08-20T14:03:34;4.82;;;1.80;;
18378;SDS011;27025;51.986;5.984;2023-08-20T14:06:00;3.35;;;1.50;;
18378;SDS011;27025;51.986;5.984;2023-08-20T14:08:26;3.90;;;1.73;;
18378;SDS011;27025;51.986;5.984;2023-08-20T14:10:52;6.45;;;2.47;;
18378;SDS011;27025;51.986;5.984;2023-08-20T14:13:18;5.13;;;1.95;;
18378;SDS011;27025;51.986;5.984;2023-08-20T14:15:44;4.65;;;1.98;;
18378;SDS011;27025;51.986;5.984;2023-08-20T14:18:10;4.18;;;1.80;;
18378;SDS011;27025;51.986;5.984;2023-08-20T14:20:36;3.30;;;1.58;;
18378;SDS011;27025;51.986;5.984;2023-08-20T14:23:02;5.28;;;1.63;;
18378;SDS011;27025;51.986;5.984;2023-08-20T14:25:28;4.20;;;1.58;;
18378;SDS011;27025;51.986;5.984;2023-08-20T14:27:54;5.00;;;2.22;;
18378;SDS011;27025;51.986;5.984;2023-08-20T14:30:20;3.70;;;2.10;;
18378;SDS011;27025;51.986;5.984;2023-08-20T14:32:46;3.22;;;1.40;;
18378;SDS011;27025;51.986;5.984;2023-08-20T14:35:13;4.10;;;1.45;;
18378;SDS011;27025;51.986;5.984;2023-08-20T14:37:39;5.80;;;2.20;;
18378;SDS011;27025;51.986;5.984;2023-08-20T14:40:05;5.75;;;1.77;;
18378;SDS011;27025;51.986;5.984;2023-08-20T14:42:32;3.70;;;1.50;;
18378;SDS011;27025;51.986;5.984;2023-08-20T14:44:58;3.72;;;1.80;;
18378;SDS011;27025;51.986;5.984;2023-08-20T14:47:24;4.55;;;1.50;;
18378;SDS011;27025;51.986;5.984;2023-08-20T14:49:50;5.63;;;2.30;;
18378;SDS011;27025;51.986;5.984;2023-08-20T14:52:17;5.07;;;1.83;;